Time;durP1;ratioP1;P1;durP2;ratioP2;P2;SDS_P1;SDS_P2;PMS_P1;PMS_P2;Temp;Humidity;BMP_temperature;BMP_pressure;BME280_temperature;BME280_humidity;BME280_pressure;Samples;Min_cycle;Max_cycle;Signal;HPM_P1;HPM_P2
2022/03/05 00:01:32;;;;;;;19.08;11.40;;;;;;;-1.80;100.00;96574.00;5032467;28;20488;-57
2022/03/05 00:04:02;;;;;;;20.15;12.10;;;;;;;-1.77;100.00;96571.28;5040418;28;20088;-59
2022/03/05 00:06:30;;;;;;;19.70;11.27;;;;;;;-1.75;100.00;96572.09;5041221;28;20564;-60
2022/03/05 00:08:58;;;;;;;18.67;10.98;;;;;;;-1.70;100.00;96571.88;5041744;28;20482;-60
2022/03/05 00:11:26;;;;;;;20.55;11.07;;;;;;;-1.77;100.00;96570.47;5045381;28;20081;-61
2022/03/05 00:13:54;;;;;;;18.45;10.95;;;;;;;-1.74;100.00;96565.16;5038650;28;20084;-59
2022/03/05 00:16:23;;;;;;;19.55;11.25;;;;;;;-1.78;100.00;96572.22;5035680;28;20107;-57
2022/03/05 00:18:51;;;;;;;17.02;11.00;;;;;;;-1.75;100.00;96571.25;5040759;28;20091;-59
2022/03/05 00:21:21;;;;;;;18.75;10.23;;;;;;;-1.73;100.00;96574.59;5040082;28;20093;-60
2022/03/05 00:23:49;;;;;;;19.77;11.27;;;;;;;-1.74;100.00;96571.16;5036250;28;20088;-60
2022/03/05 00:26:17;;;;;;;17.85;11.13;;;;;;;-1.68;100.00;96563.16;5042230;28;20089;-59
2022/03/05 00:28:45;;;;;;;20.50;12.10;;;;;;;-1.75;100.00;96572.09;5034863;28;20080;-59
2022/03/05 00:31:13;;;;;;;16.83;10.75;;;;;;;-1.72;100.00;96566.78;5037966;28;20084;-60
2022/03/05 00:33:42;;;;;;;16.45;11.05;;;;;;;-1.72;100.00;96569.38;5032897;28;20418;-59
2022/03/05 00:36:10;;;;;;;18.35;11.45;;;;;;;-1.74;100.00;96568.59;5032567;28;20085;-59
2022/03/05 00:38:41;;;;;;;19.05;10.50;;;;;;;-1.75;100.00;96571.25;5034142;28;20081;-59
2022/03/05 00:41:09;;;;;;;15.38;10.63;;;;;;;-1.72;100.00;96574.53;5032310;28;20076;-57
2022/03/05 00:43:37;;;;;;;18.48;10.95;;;;;;;-1.70;100.00;96571.88;5035793;28;20077;-59
2022/03/05 00:46:05;;;;;;;19.88;11.50;;;;;;;-1.75;100.00;96568.66;5034050;28;20474;-60
2022/03/05 00:48:34;;;;;;;17.92;10.52;;;;;;;-1.79;100.00;96572.25;5036860;28;20088;-59
2022/03/05 00:51:04;;;;;;;22.20;10.65;;;;;;;-1.77;100.00;96568.72;5044223;28;20453;-57
2022/03/05 00:53:52;;;;;;;19.92;11.10;;;;;;;-1.79;100.00;96564.50;5032305;28;20049;-59
2022/03/05 00:56:20;;;;;;;17.53;11.30;;;;;;;-1.85;100.00;96567.38;5033075;28;20124;-59
2022/03/05 00:58:48;;;;;;;17.67;10.88;;;;;;;-1.94;100.00;96571.19;5035431;28;20095;-59
2022/03/05 01:01:17;;;;;;;19.63;11.18;;;;;;;-1.91;100.00;96566.72;5034294;28;20085;-58
2022/03/05 01:03:45;;;;;;;17.50;11.55;;;;;;;-1.97;100.00;96563.56;5046891;28;20095;-58
2022/03/05 01:06:14;;;;;;;17.10;11.38;;;;;;;-1.95;100.00;96564.34;5042450;28;20092;-59
2022/03/05 01:08:42;;;;;;;20.85;11.70;;;;;;;-1.93;100.00;96558.22;5046858;28;20085;-57
2022/03/05 01:11:15;;;;;;;16.77;11.05;;;;;;;-1.94;100.00;96563.44;5048045;28;20104;-59
2022/03/05 01:13:44;;;;;;;17.70;11.15;;;;;;;-1.97;100.00;96561.81;5040545;28;20073;-59
2022/03/05 01:16:13;;;;;;;20.30;10.75;;;;;;;-2.00;100.00;96555.94;5043043;28;20120;-59
2022/03/05 01:18:42;;;;;;;16.92;10.95;;;;;;;-1.98;100.00;96557.56;5041096;28;20099;-59
2022/03/05 01:21:10;;;;;;;17.30;10.55;;;;;;;-2.08;100.00;96558.03;5038049;28;20085;-56
2022/03/05 01:23:39;;;;;;;19.85;11.05;;;;;;;-2.01;100.00;96565.44;5044403;28;20525;-59
2022/03/05 01:26:07;;;;;;;17.35;11.13;;;;;;;-2.02;100.00;96568.94;5042575;28;20115;-58
2022/03/05 01:28:37;;;;;;;18.50;11.18;;;;;;;-2.00;100.00;96558.53;5039991;28;20080;-58
2022/03/05 01:31:05;;;;;;;17.43;11.27;;;;;;;-2.10;100.00;96558.06;5043512;28;20087;-59
2022/03/05 01:33:33;;;;;;;18.38;11.00;;;;;;;-2.13;100.00;96562.53;5037716;28;20084;-55
2022/03/05 01:36:02;;;;;;;17.40;10.25;;;;;;;-2.17;100.00;96560.09;5041617;28;20079;-57
2022/03/05 01:38:30;;;;;;;16.70;10.63;;;;;;;-2.11;100.00;96556.41;5040765;28;20470;-59
2022/03/05 01:40:58;;;;;;;18.08;11.45;;;;;;;-2.23;100.00;96554.34;5035912;28;20077;-56
2022/03/05 01:43:26;;;;;;;15.85;10.70;;;;;;;-2.21;100.00;96553.34;5040864;28;20076;-57
2022/03/05 01:45:56;;;;;;;17.95;11.65;;;;;;;-2.24;100.00;96545.72;5043762;28;20095;-59
2022/03/05 01:48:25;;;;;;;23.27;12.18;;;;;;;-2.20;100.00;96552.47;5036899;28;20084;-58
2022/03/05 01:50:53;;;;;;;19.30;11.48;;;;;;;-2.18;100.00;96554.97;5034596;28;20088;-58
2022/03/05 01:53:21;;;;;;;19.98;11.77;;;;;;;-2.19;100.00;96553.31;5039747;28;20076;-58
2022/03/05 01:55:50;;;;;;;18.55;11.02;;;;;;;-2.20;100.00;96551.63;5036291;28;20093;-59
2022/03/05 01:58:18;;;;;;;19.23;11.13;;;;;;;-2.26;100.00;96559.63;5039105;28;20080;-59
2022/03/05 02:00:46;;;;;;;21.40;11.10;;;;;;;-2.23;100.00;96556.94;5022411;28;20076;-58
2022/03/05 02:03:16;;;;;;;21.67;11.43;;;;;;;-2.26;100.00;96549.31;5047474;28;20084;-58
2022/03/05 02:05:45;;;;;;;19.30;11.10;;;;;;;-2.29;100.00;96552.84;5041414;28;20077;-60
2022/03/05 02:08:13;;;;;;;18.85;11.63;;;;;;;-2.37;100.00;96549.75;5042055;28;20083;-58
2022/03/05 02:10:41;;;;;;;20.40;11.63;;;;;;;-2.34;100.00;96549.63;5043887;28;20069;-59
2022/03/05 02:13:10;;;;;;;19.30;11.43;;;;;;;-2.35;100.00;96547.09;5038790;28;20088;-58
2022/03/05 02:15:39;;;;;;;19.33;11.85;;;;;;;-2.45;100.00;96546.63;5042374;28;20069;-58
2022/03/05 02:18:07;;;;;;;18.67;11.38;;;;;;;-2.57;100.00;96542.81;5034933;28;20084;-59
2022/03/05 02:20:39;;;;;;;18.27;11.95;;;;;;;-2.56;100.00;96548.81;5032715;28;20071;-57
2022/03/05 02:23:07;;;;;;;18.90;12.05;;;;;;;-2.50;100.00;96543.41;5032540;28;20072;-58
2022/03/05 02:25:36;;;;;;;22.27;11.80;;;;;;;-2.47;100.00;96538.97;5024326;28;20064;-60
2022/03/05 02:28:05;;;;;;;19.17;11.60;;;;;;;-2.47;100.00;96532.97;5040449;28;20060;-56
2022/03/05 02:30:33;;;;;;;20.65;12.65;;;;;;;-2.50;100.00;96531.34;5043491;28;20079;-58
2022/03/05 02:33:01;;;;;;;17.70;12.45;;;;;;;-2.53;100.00;96531.47;5039663;28;20157;-57
2022/03/05 02:35:30;;;;;;;17.88;11.32;;;;;;;-2.59;100.00;96529.13;5042716;28;20072;-56
2022/03/05 02:37:59;;;;;;;20.27;12.13;;;;;;;-2.57;100.00;96529.91;5039112;28;20436;-58
2022/03/05 02:40:27;;;;;;;20.00;11.80;;;;;;;-2.61;100.00;96524.97;5018962;28;20064;-58
2022/03/05 02:42:56;;;;;;;21.38;12.25;;;;;;;-2.59;100.00;96526.56;5038181;28;20088;-60
2022/03/05 02:45:24;;;;;;;23.08;13.00;;;;;;;-2.64;100.00;96523.34;5044512;28;20095;-58
2022/03/05 02:47:52;;;;;;;20.20;12.13;;;;;;;-2.71;100.00;96525.31;5041356;28;20090;-59
2022/03/05 02:50:21;;;;;;;21.33;11.95;;;;;;;-2.72;100.00;96528.81;5034924;28;20077;-57
2022/03/05 02:52:49;;;;;;;19.70;12.35;;;;;;;-2.73;100.00;96523.69;5030609;28;20736;-59
2022/03/05 02:55:19;;;;;;;21.50;13.20;;;;;;;-2.71;100.00;96522.75;5037939;28;20065;-57
2022/03/05 02:57:47;;;;;;;21.83;11.52;;;;;;;-2.82;100.00;96518.91;5042060;28;20045;-57
2022/03/05 03:00:16;;;;;;;21.27;12.43;;;;;;;-2.78;100.00;96513.56;5042814;28;20057;-58
2022/03/05 03:02:45;;;;;;;21.40;12.48;;;;;;;-2.78;100.00;96512.72;5045864;28;20076;-57
2022/03/05 03:05:14;;;;;;;23.63;12.47;;;;;;;-2.83;100.00;96507.75;5038036;28;20072;-58
2022/03/05 03:07:43;;;;;;;26.67;12.90;;;;;;;-2.87;100.00;96519.09;5037159;28;20477;-58
2022/03/05 03:10:13;;;;;;;21.30;13.60;;;;;;;-2.87;100.00;96519.94;5039854;28;20053;-58
2022/03/05 03:12:43;;;;;;;20.92;12.65;;;;;;;-2.90;100.00;96516.63;5033825;28;20081;-60
2022/03/05 03:15:14;;;;;;;24.88;13.13;;;;;;;-2.87;100.00;96513.94;5033818;28;20095;-58
2022/03/05 03:17:43;;;;;;;20.05;12.52;;;;;;;-2.93;100.00;96521.91;5036330;28;20081;-59
2022/03/05 03:20:13;;;;;;;19.92;12.93;;;;;;;-2.88;100.00;96520.00;5038776;28;20077;-57
2022/03/05 03:22:41;;;;;;;23.70;12.57;;;;;;;-2.89;100.00;96523.47;5034024;28;20081;-60
2022/03/05 03:25:11;;;;;;;24.17;13.27;;;;;;;-2.90;100.00;96516.63;5042171;28;20085;-59
2022/03/05 03:27:39;;;;;;;23.40;12.95;;;;;;;-3.01;100.00;96522.22;5045075;28;20088;-53
2022/03/05 03:30:11;;;;;;;19.80;13.32;;;;;;;-2.95;100.00;96518.56;5040692;28;20077;-60
2022/03/05 03:32:39;;;;;;;20.48;12.38;;;;;;;-3.01;100.00;96524.81;5040327;28;20079;-59
2022/03/05 03:35:08;;;;;;;21.65;13.48;;;;;;;-3.05;100.00;96512.09;5031629;28;20084;-58
2022/03/05 03:37:37;;;;;;;22.15;13.25;;;;;;;-3.15;100.00;96512.44;5033061;28;20161;-57
2022/03/05 03:40:07;;;;;;;22.08;12.95;;;;;;;-3.16;100.00;96528.00;5033000;28;20554;-56
2022/03/05 03:42:36;;;;;;;;;;;;;;;-3.17;100.00;96524.53;5035988;28;20088;-58
2022/03/05 03:45:05;;;;;;;21.23;12.48;;;;;;;-3.24;100.00;96520.53;5035737;28;19979;-58
2022/03/05 03:47:35;;;;;;;21.90;12.70;;;;;;;-3.24;100.00;96530.00;5029680;28;20084;-59
2022/03/05 03:50:05;;;;;;;22.25;13.75;;;;;;;-3.25;100.00;96529.16;5037173;28;20088;-58
2022/03/05 03:52:33;;;;;;;23.98;13.32;;;;;;;-3.22;100.00;96529.06;5038105;28;20175;-58
2022/03/05 03:55:03;;;;;;;22.30;12.68;;;;;;;-3.35;100.00;96530.41;5039409;28;20092;-56
2022/03/05 03:57:32;;;;;;;24.70;13.27;;;;;;;-3.29;100.00;96544.84;5033009;28;20666;-59
2022/03/05 04:00:00;;;;;;;25.10;13.20;;;;;;;-3.33;100.00;96538.94;5034996;28;20084;-57
2022/03/05 04:02:28;;;;;;;21.25;12.43;;;;;;;-3.30;100.00;96538.84;5037802;28;20533;-58
2022/03/05 04:04:58;;;;;;;24.25;13.00;;;;;;;-3.32;100.00;96539.78;5036763;28;20072;-58
2022/03/05 04:10:12;;;;;;;23.80;13.52;;;;;;;-3.49;100.00;96545.56;5045470;28;20080;-58
2022/03/05 04:12:40;;;;;;;23.08;12.18;;;;;;;-3.49;100.00;96549.00;5039884;28;20528;-59
2022/03/05 04:15:10;;;;;;;22.42;13.70;;;;;;;-3.52;100.00;96546.53;5039623;28;20119;-59
2022/03/05 04:17:39;;;;;;;22.00;13.73;;;;;;;-3.43;100.00;96553.09;5031097;28;20559;-59
2022/03/05 04:20:10;;;;;;;25.63;14.13;;;;;;;-3.46;100.00;96548.03;5043073;28;20072;-58
2022/03/05 04:22:39;;;;;;;24.73;13.82;;;;;;;-3.52;100.00;96551.69;5038296;28;20084;-57
2022/03/05 04:25:08;;;;;;;27.23;14.27;;;;;;;-3.43;100.00;96547.94;5032295;28;20073;-57
2022/03/05 04:27:36;;;;;;;19.90;13.60;;;;;;;-3.43;100.00;96542.78;5040098;28;20103;-56
2022/03/05 04:30:07;;;;;;;25.05;13.23;;;;;;;-3.41;100.00;96546.13;5032339;28;20092;-56
2022/03/05 04:32:35;;;;;;;25.25;13.80;;;;;;;-3.40;100.00;96542.66;5045714;28;20083;-58
2022/03/05 04:35:04;;;;;;;28.58;14.40;;;;;;;-3.51;100.00;96545.66;5037940;28;20100;-57
2022/03/05 04:37:34;;;;;;;25.25;14.20;;;;;;;-3.42;100.00;96549.59;5039123;28;20537;-54
2022/03/05 04:40:03;;;;;;;23.88;14.10;;;;;;;-3.45;100.00;96547.13;5047695;28;20084;-56
2022/03/05 04:42:32;;;;;;;24.70;14.02;;;;;;;-3.41;100.00;96544.38;5040291;28;20080;-53
2022/03/05 04:45:00;;;;;;;26.23;14.18;;;;;;;-3.39;100.00;96547.75;5043498;28;20072;-56
2022/03/05 04:47:29;;;;;;;22.13;13.35;;;;;;;-3.39;100.00;96544.34;5041250;28;20081;-58
2022/03/05 04:49:57;;;;;;;26.58;15.10;;;;;;;-3.44;100.00;96552.25;5048509;28;20080;-58
2022/03/05 04:52:25;;;;;;;26.70;14.48;;;;;;;-3.44;100.00;96552.25;5044159;28;20551;-59
2022/03/05 04:54:55;;;;;;;25.60;13.93;;;;;;;-3.51;100.00;96553.38;5044468;28;20080;-58
2022/03/05 04:57:24;;;;;;;24.77;13.88;;;;;;;-3.39;100.00;96546.91;5043539;28;20152;-59
2022/03/05 04:59:57;;;;;;;24.02;14.00;;;;;;;-3.49;100.00;96553.31;5041106;28;20092;-59
2022/03/05 05:02:25;;;;;;;26.15;13.60;;;;;;;-3.42;100.00;96562.50;5041119;28;20094;-59
2022/03/05 05:04:53;;;;;;;25.52;13.65;;;;;;;-3.45;100.00;96553.13;5044436;28;20091;-59
2022/03/05 05:07:22;;;;;;;24.30;13.77;;;;;;;-3.41;100.00;96556.44;5042932;28;20084;-57
2022/03/05 05:09:50;;;;;;;23.95;13.50;;;;;;;-3.45;100.00;96555.69;5041061;28;20091;-58
2022/03/05 05:12:19;;;;;;;31.00;15.35;;;;;;;-3.46;100.00;96563.50;5042403;28;20080;-56
2022/03/05 05:14:48;;;;;;;28.00;15.70;;;;;;;-3.51;100.00;96561.09;5041866;28;20083;-55
2022/03/05 05:17:16;;;;;;;24.98;14.30;;;;;;;-3.49;100.00;96561.03;5040131;28;20552;-59
2022/03/05 05:19:44;;;;;;;24.00;13.98;;;;;;;-3.47;100.00;96559.25;5043427;28;20080;-58
2022/03/05 05:22:12;;;;;;;23.42;14.38;;;;;;;-3.65;100.00;96558.16;5045634;28;20092;-57
2022/03/05 05:24:41;;;;;;;25.40;14.75;;;;;;;-3.59;100.00;96563.09;5039304;28;20081;-62
2022/03/05 05:27:09;;;;;;;25.38;14.43;;;;;;;-3.62;100.00;96561.47;5043029;28;20491;-59
2022/03/05 05:29:39;;;;;;;23.83;14.05;;;;;;;-3.63;100.00;96574.44;5042970;28;20104;-57
2022/03/05 05:32:10;;;;;;;25.40;14.40;;;;;;;-3.71;100.00;96571.31;5037890;28;20092;-58
2022/03/05 05:34:41;;;;;;;26.13;14.43;;;;;;;-3.66;100.00;96570.22;5037402;28;20092;-56
2022/03/05 05:37:16;;;;;;;24.45;13.40;;;;;;;-3.66;100.00;96572.78;5044294;28;20076;-61
2022/03/05 05:39:44;;;;;;;26.60;14.95;;;;;;;-3.62;100.00;96570.94;5041762;28;20456;-60
2022/03/05 05:42:12;;;;;;;26.75;14.93;;;;;;;-3.60;100.00;96567.44;5044715;28;20064;-60
2022/03/05 05:44:42;;;;;;;22.13;13.98;;;;;;;-3.66;100.00;96569.38;5039872;28;20119;-59
2022/03/05 05:47:12;;;;;;;23.02;14.00;;;;;;;-3.62;100.00;96568.38;5040980;28;20140;-62
2022/03/05 05:49:40;;;;;;;24.02;14.00;;;;;;;-3.67;100.00;96568.53;5043965;28;20087;-62
2022/03/05 05:52:09;;;;;;;27.40;14.43;;;;;;;-3.68;100.00;96573.75;5041388;28;20089;-57
2022/03/05 05:54:37;;;;;;;25.75;14.18;;;;;;;-3.66;100.00;96572.78;5038012;28;20508;-56
2022/03/05 05:57:06;;;;;;;26.73;14.60;;;;;;;-3.77;100.00;96574.09;5038637;28;20540;-62
2022/03/05 05:59:35;;;;;;;29.52;14.48;;;;;;;-3.87;100.00;96574.41;5042412;28;20084;-61
2022/03/05 06:02:05;;;;;;;27.38;15.07;;;;;;;-3.70;100.00;96572.97;5044857;28;20088;-60
2022/03/05 06:04:33;;;;;;;28.30;15.13;;;;;;;-3.59;100.00;96581.16;5035923;28;20123;-57
2022/03/05 06:07:02;;;;;;;29.80;15.77;;;;;;;-3.53;100.00;96586.09;5039208;28;20083;-61
2022/03/05 06:09:30;;;;;;;27.52;16.05;;;;;;;-3.52;100.00;96592.06;5040677;28;20483;-58
2022/03/05 06:11:58;;;;;;;30.30;16.00;;;;;;;-3.51;100.00;96588.59;5032908;28;21159;-60
2022/03/05 06:14:26;;;;;;;28.15;15.63;;;;;;;-3.44;100.00;96588.34;5029788;28;20093;-60
2022/03/05 06:16:55;;;;;;;25.52;14.95;;;;;;;-3.46;100.00;96586.72;5039192;28;20085;-60
2022/03/05 06:19:24;;;;;;;30.33;15.13;;;;;;;-3.33;100.00;96593.09;5035878;28;20091;-57
2022/03/05 06:21:53;;;;;;;26.58;15.50;;;;;;;-3.30;100.00;96594.69;5038441;28;20532;-57
2022/03/05 06:24:21;;;;;;;28.33;15.90;;;;;;;-3.20;100.00;96590.88;5035263;28;20556;-58
2022/03/05 06:26:50;;;;;;;27.30;15.77;;;;;;;-3.09;100.00;96596.50;5035709;28;20572;-61
2022/03/05 06:29:19;;;;;;;25.10;14.98;;;;;;;-3.02;100.00;96597.09;5025552;28;20612;-58
2022/03/05 06:31:48;;;;;;;30.60;15.88;;;;;;;-2.96;100.00;96594.25;5041055;28;20571;-58
2022/03/05 06:34:20;;;;;;;28.60;15.38;;;;;;;-2.96;100.00;96612.31;5037701;28;20076;-62
2022/03/05 06:36:52;;;;;;;31.08;15.27;;;;;;;-2.75;100.00;96602.91;5037402;28;20529;-58
2022/03/05 06:39:21;;;;;;;33.22;16.75;;;;;;;-2.66;100.00;96598.22;5008839;28;20085;-60
2022/03/05 06:41:51;;;;;;;29.48;15.95;;;;;;;-2.57;100.00;96604.78;5038035;28;20091;-58
2022/03/05 06:44:20;;;;;;;31.92;16.63;;;;;;;-2.49;100.00;96601.88;5037451;28;20088;-59
2022/03/05 06:46:48;;;;;;;32.35;16.60;;;;;;;-2.39;100.00;96598.88;5032654;28;20112;-57
2022/03/05 06:49:18;;;;;;;36.53;19.88;;;;;;;-2.25;100.00;96597.47;5036551;28;20083;-58
2022/03/05 06:51:48;;;;;;;33.40;19.23;;;;;;;-2.17;100.00;96596.25;5037529;28;20081;-60
2022/03/05 06:54:18;;;;;;;33.08;17.92;;;;;;;-2.02;100.00;96596.53;5035426;28;20096;-61
2022/03/05 06:56:49;;;;;;;36.03;19.63;;;;;;;-1.86;100.00;96599.28;5037641;28;20092;-58
2022/03/05 06:59:19;;;;;;;37.22;18.00;;;;;;;-1.67;100.00;96607.94;5036762;28;20081;-58
2022/03/05 07:01:48;;;;;;;33.47;18.02;;;;;;;-1.64;100.00;96597.47;5030962;28;20533;-52
2022/03/05 07:04:17;;;;;;;33.28;17.48;;;;;;;-1.51;100.00;96592.59;5037874;28;20544;-58
2022/03/05 07:06:46;;;;;;;35.17;17.63;;;;;;;-1.49;100.00;96593.34;5036243;28;20089;-60
2022/03/05 07:09:15;;;;;;;34.92;18.90;;;;;;;-1.47;100.00;96600.16;5020316;28;20103;-61
2022/03/05 07:11:45;;;;;;;35.00;19.05;;;;;;;-1.39;100.00;96597.22;5040599;28;20084;-57
2022/03/05 07:14:14;;;;;;;30.83;17.25;;;;;;;-1.31;100.00;96596.88;5037064;28;20513;-63
2022/03/05 07:16:42;;;;;;;30.33;17.63;;;;;;;-1.17;100.00;96606.59;5035600;28;20080;-56
2022/03/05 07:19:10;;;;;;;36.20;17.80;;;;;;;-1.07;100.00;96605.25;5039576;28;20084;-58
2022/03/05 07:21:41;;;;;;;35.40;20.15;;;;;;;-1.00;100.00;96609.25;5039450;28;20095;-57
2022/03/05 07:24:09;;;;;;;31.08;17.45;;;;;;;-0.89;100.00;96601.84;5031421;28;20100;-60
2022/03/05 07:26:38;;;;;;;31.25;16.90;;;;;;;-0.76;100.00;96608.13;5038771;28;20099;-60
2022/03/05 07:29:08;;;;;;;39.28;19.67;;;;;;;-0.70;100.00;96608.75;5035745;28;20088;-60
2022/03/05 07:31:37;;;;;;;37.10;18.95;;;;;;;-0.63;100.00;96603.19;5038407;28;20084;-59
2022/03/05 07:34:06;;;;;;;33.85;20.10;;;;;;;-0.50;100.00;96606.06;5036911;28;20081;-59
2022/03/05 07:36:34;;;;;;;35.25;19.83;;;;;;;-0.37;100.00;96601.13;5035576;28;20100;-59
2022/03/05 07:39:04;;;;;;;33.03;18.27;;;;;;;-0.40;100.00;96606.44;5037469;28;20085;-57
2022/03/05 07:41:33;;;;;;;34.67;18.83;;;;;;;-0.25;100.00;96603.09;5038198;28;20110;-54
2022/03/05 07:44:01;;;;;;;25.67;15.07;;;;;;;-0.19;100.00;96596.78;5033327;28;20506;-59
2022/03/05 07:46:31;;;;;;;27.20;13.88;;;;;;;-0.29;100.00;96605.00;5039465;28;20085;-56
2022/03/05 07:49:00;;;;;;;;;;;;;;;-0.11;100.00;96597.25;5037553;28;20073;-60
2022/03/05 07:51:28;;;;;;;29.65;15.38;;;;;;;-0.07;100.00;96603.94;5033610;28;19960;-60
2022/03/05 07:53:56;;;;;;;34.22;18.52;;;;;;;0.30;100.00;96599.50;5036289;28;20077;-57
2022/03/05 07:56:43;;;;;;;31.63;16.83;;;;;;;0.28;100.00;96599.59;5034389;28;20634;-58
2022/03/05 07:59:11;;;;;;;31.35;17.58;;;;;;;0.50;100.00;96601.09;5036889;28;20076;-60
2022/03/05 08:01:41;;;;;;;35.70;19.10;;;;;;;0.57;100.00;96597.25;5037196;28;20091;-58
2022/03/05 08:04:12;;;;;;;34.97;18.83;;;;;;;0.68;100.00;96600.94;5033032;28;20092;-59
2022/03/05 08:06:40;;;;;;;31.92;18.10;;;;;;;0.76;100.00;96610.09;5033995;28;20571;-58
2022/03/05 08:09:09;;;;;;;31.13;17.95;;;;;;;0.97;100.00;96605.53;5037885;28;20449;-57
2022/03/05 08:11:37;;;;;;;31.13;17.23;;;;;;;0.89;100.00;96606.75;5040229;28;20081;-57
2022/03/05 08:14:05;;;;;;;36.72;17.95;;;;;;;1.09;100.00;96604.84;5037577;28;20077;-60
2022/03/05 08:16:34;;;;;;;31.63;17.70;;;;;;;1.32;100.00;96598.41;5046076;28;20480;-60
2022/03/05 08:19:04;;;;;;;32.20;17.00;;;;;;;1.14;100.00;96595.06;5037112;28;20087;-56
2022/03/05 08:21:33;;;;;;;35.95;21.13;;;;;;;1.35;100.00;96598.25;5032652;28;20159;-59
2022/03/05 08:24:01;;;;;;;31.48;16.70;;;;;;;1.12;100.00;96602.09;5038793;28;20531;-60
2022/03/05 08:26:29;;;;;;;32.22;17.58;;;;;;;1.43;100.00;96596.88;5043507;28;20219;-59
2022/03/05 08:28:57;;;;;;;30.98;18.55;;;;;;;1.32;100.00;96612.25;5037340;28;20069;-61
2022/03/05 08:31:25;;;;;;;27.08;15.13;;;;;;;1.31;100.00;96609.75;5024788;28;20077;-58
2022/03/05 08:33:54;;;;;;;26.65;14.35;;;;;;;1.63;100.00;96607.94;5043256;28;20081;-56
2022/03/05 08:36:23;;;;;;;32.38;17.48;;;;;;;1.59;100.00;96603.84;5037066;28;20641;-60
2022/03/05 08:38:52;;;;;;;33.83;18.73;;;;;;;1.86;100.00;96598.84;5034022;28;20068;-59
2022/03/05 08:41:20;;;;;;;32.15;18.20;;;;;;;1.84;100.00;96600.69;5042324;28;20517;-60
2022/03/05 08:43:48;;;;;;;30.15;17.48;;;;;;;1.96;100.00;96596.53;5041025;28;20104;-60
2022/03/05 08:46:17;;;;;;;29.35;16.52;;;;;;;1.90;100.00;96595.97;5034933;28;20077;-60
2022/03/05 08:48:45;;;;;;;28.67;16.77;;;;;;;2.18;100.00;96603.94;5045367;28;20436;-59
2022/03/05 08:51:18;;;;;;;28.08;15.25;;;;;;;2.00;100.00;96601.50;5036437;28;20092;-60
2022/03/05 08:53:47;;;;;;;35.45;19.25;;;;;;;2.24;100.00;96601.00;5029916;28;20076;-59
2022/03/05 08:56:16;;;;;;;28.27;17.40;;;;;;;1.95;100.00;96610.47;5033293;28;20072;-59
2022/03/05 08:58:44;;;;;;;28.55;17.15;;;;;;;1.92;100.00;96598.47;5038873;28;20089;-59
2022/03/05 09:01:12;;;;;;;35.88;21.15;;;;;;;1.90;100.00;96602.94;5039498;28;20077;-57
2022/03/05 09:03:42;;;;;;;33.65;18.65;;;;;;;1.84;100.00;96609.31;5035176;28;20072;-58
2022/03/05 09:06:10;;;;;;;29.00;15.50;;;;;;;1.86;100.00;96593.66;5037206;28;20469;-59
2022/03/05 09:08:38;;;;;;;33.70;19.98;;;;;;;2.12;100.00;96595.56;5041386;28;20569;-59
2022/03/05 09:11:08;;;;;;;31.73;16.98;;;;;;;2.46;100.00;96590.97;5046873;28;20068;-57
2022/03/05 09:13:36;;;;;;;32.80;21.58;;;;;;;2.36;100.00;96595.88;5034664;28;20076;-58
2022/03/05 09:16:05;;;;;;;31.75;20.63;;;;;;;2.68;100.00;96592.28;5041200;28;20084;-59
2022/03/05 09:18:34;;;;;;;24.00;12.82;;;;;;;2.47;100.00;96587.44;5041270;28;20509;-60
2022/03/05 09:21:02;;;;;;;30.27;18.55;;;;;;;2.87;100.00;96590.25;5033978;28;20083;-58
2022/03/05 09:23:30;;;;;;;32.83;17.15;;;;;;;3.41;100.00;96584.28;5041956;28;20081;-60
2022/03/05 09:25:59;;;;;;;26.02;14.80;;;;;;;3.08;100.00;96588.91;5041341;28;20100;-61
2022/03/05 09:28:28;;;;;;;29.15;17.13;;;;;;;3.45;100.00;96573.56;5037444;28;20095;-63
2022/03/05 09:30:58;;;;;;;32.08;17.75;;;;;;;3.27;100.00;96578.19;5035305;28;20069;-58
2022/03/05 09:33:26;;;;;;;29.80;20.27;;;;;;;3.33;100.00;96572.56;5038409;28;20072;-61
2022/03/05 09:35:54;;;;;;;29.20;17.75;;;;;;;3.39;100.00;96578.31;5038364;28;20495;-60
2022/03/05 09:38:23;;;;;;;28.40;17.52;;;;;;;3.50;100.00;96575.88;5034369;28;20075;-60
2022/03/05 09:40:51;;;;;;;27.27;17.15;;;;;;;3.35;100.00;96584.69;5046032;28;20083;-60
2022/03/05 09:43:20;;;;;;;26.77;15.60;;;;;;;3.60;100.00;96587.38;5043378;28;20084;-60
2022/03/05 09:45:50;;;;;;;26.98;16.25;;;;;;;3.59;100.00;96580.50;5043333;28;20088;-60
2022/03/05 09:48:19;;;;;;;26.52;16.52;;;;;;;3.50;100.00;96574.09;5035283;28;20072;-60
2022/03/05 09:50:47;;;;;;;25.08;15.13;;;;;;;4.01;100.00;96565.59;5037663;28;20523;-56
2022/03/05 09:53:16;;;;;;;24.45;13.90;;;;;;;3.84;100.00;96569.31;5039158;28;20076;-59
2022/03/05 09:55:45;;;;;;;21.83;14.20;;;;;;;3.82;100.00;96576.41;5040692;28;20076;-61
2022/03/05 09:58:33;;;;;;;25.77;17.35;;;;;;;3.45;100.00;96578.78;5042227;28;20083;-60
2022/03/05 10:01:03;;;;;;;24.40;16.23;;;;;;;2.98;100.00;96574.78;5040164;28;20069;-61
2022/03/05 10:03:42;;;;;;;24.27;14.68;;;;;;;3.66;100.00;96573.94;5038730;28;20068;-60
2022/03/05 10:06:15;;;;;;;24.70;13.27;;;;;;;3.86;100.00;96574.44;5040620;28;20072;-61
2022/03/05 10:08:44;;;;;;;17.92;11.02;;;;;;;3.96;100.00;96578.94;5042149;28;20429;-61
2022/03/05 10:11:13;;;;;;;20.98;12.60;;;;;;;3.98;92.25;96561.41;5038685;28;20089;-60
2022/03/05 10:13:43;;;;;;;18.38;12.00;;;;;;;3.57;84.17;96561.50;5037999;28;20488;-62
2022/03/05 10:16:26;;;;;;;17.97;10.40;;;;;;;3.62;79.29;96567.25;5036457;28;20077;-62
2022/03/05 10:18:54;;;;;;;14.15;10.30;;;;;;;3.49;74.40;96576.81;5039609;28;20077;-62
2022/03/05 10:21:30;;;;;;;18.13;11.20;;;;;;;3.85;75.69;96568.34;5038233;28;20077;-61
2022/03/05 10:24:06;;;;;;;14.43;9.93;;;;;;;4.12;74.07;96564.88;5040959;28;20072;-62
2022/03/05 10:26:56;;;;;;;18.60;11.45;;;;;;;3.76;72.71;96569.81;5033359;28;20491;-60
2022/03/05 10:29:25;;;;;;;14.73;8.57;;;;;;;3.81;67.63;96559.06;5034647;28;20073;-61
2022/03/05 10:32:01;;;;;;;13.10;8.20;;;;;;;3.92;63.78;96563.56;5039002;28;20468;-61
2022/03/05 10:34:34;;;;;;;16.40;9.93;;;;;;;4.02;61.95;96568.09;5037046;28;20088;-60
2022/03/05 10:37:03;;;;;;;13.23;9.10;;;;;;;3.91;57.96;96567.13;5044723;28;20068;-62
2022/03/05 10:39:38;;;;;;;16.20;10.25;;;;;;;4.07;62.62;96572.19;5037243;28;20085;-61
2022/03/05 10:42:16;;;;;;;14.40;9.98;;;;;;;4.48;59.42;96567.63;5041103;28;20076;-59
2022/03/05 10:44:46;;;;;;;13.65;8.95;;;;;;;4.17;58.56;96568.84;5047385;28;20060;-61
2022/03/05 10:47:15;;;;;;;16.17;10.43;;;;;;;4.23;60.75;96570.19;5032687;28;20084;-62
2022/03/05 10:49:44;;;;;;;14.18;9.05;;;;;;;3.99;60.87;96563.09;5043907;28;20068;-59
2022/03/05 10:52:12;;;;;;;12.90;8.55;;;;;;;4.40;58.54;96561.22;5039641;28;20065;-62
2022/03/05 10:54:42;;;;;;;13.30;8.55;;;;;;;4.12;54.09;96570.09;5031816;28;20081;-62
2022/03/05 10:57:13;;;;;;;14.75;8.90;;;;;;;4.09;55.37;96554.63;5037669;28;20481;-60
2022/03/05 10:59:43;;;;;;;12.38;8.23;;;;;;;4.53;55.11;96562.91;5039387;28;20075;-60
2022/03/05 11:02:13;;;;;;;13.45;8.57;;;;;;;4.31;56.43;96561.88;5037700;28;20073;-61
2022/03/05 11:04:43;;;;;;;13.93;9.57;;;;;;;3.93;56.91;96563.50;5039079;28;20083;-61
2022/03/05 11:07:12;;;;;;;13.90;9.65;;;;;;;4.02;58.52;96562.03;5042074;28;20113;-60
2022/03/05 11:09:42;;;;;;;15.85;8.85;;;;;;;3.42;60.21;96562.50;5020435;28;20075;-59
2022/03/05 11:12:16;;;;;;;15.75;8.38;;;;;;;3.43;61.62;96565.00;5020623;28;20077;-61
2022/03/05 11:14:46;;;;;;;16.15;10.35;;;;;;;3.77;61.54;96558.44;5033017;28;20096;-61
2022/03/05 11:17:14;;;;;;;11.45;7.13;;;;;;;3.39;59.81;96560.09;5041135;28;20080;-61
2022/03/05 11:19:44;;;;;;;12.75;7.90;;;;;;;3.48;57.72;96556.91;5037535;28;20069;-61
2022/03/05 11:22:14;;;;;;;12.20;8.35;;;;;;;3.57;57.59;96557.13;5033500;28;20535;-61
2022/03/05 11:24:43;;;;;;;13.38;9.13;;;;;;;3.66;57.80;96554.88;5034468;28;20509;-61
2022/03/05 11:27:13;;;;;;;13.85;9.02;;;;;;;3.93;57.33;96553.06;5035234;28;20076;-62